Time;durP1;ratioP1;P1;durP2;ratioP2;P2;SDS_P1;SDS_P2;PMS_P1;PMS_P2;Temp;Humidity;BMP_temperature;BMP_pressure;BME280_temperature;BME280_humidity;BME280_pressure;Samples;Min_cycle;Max_cycle;Signal;HPM_P1;HPM_P2
2021/06/13 00:01:11;;;;;;;4.57;2.50;;;13.20;99.90;;;;;;5033483;28;20179;-81
2021/06/13 00:03:37;;;;;;;6.17;2.33;;;13.20;99.90;;;;;;5033525;28;20206;-81
2021/06/13 00:06:03;;;;;;;8.40;2.90;;;13.20;99.90;;;;;;5033163;28;20190;-81
2021/06/13 00:08:29;;;;;;;5.37;2.67;;;13.20;99.90;;;;;;5034009;28;20179;-81
2021/06/13 00:10:54;;;;;;;5.97;2.40;;;13.10;99.90;;;;;;5016750;28;20556;-82
2021/06/13 00:13:20;;;;;;;10.10;2.77;;;13.10;99.90;;;;;;5016586;28;20657;-82
2021/06/13 00:15:46;;;;;;;6.50;2.67;;;13.10;99.90;;;;;;5033431;28;20211;-80
2021/06/13 00:18:11;;;;;;;7.43;2.87;;;13.00;99.90;;;;;;5033587;28;20172;-80
2021/06/13 00:20:37;;;;;;;7.00;2.90;;;13.10;99.90;;;;;;5033424;28;20258;-80
2021/06/13 00:23:02;;;;;;;5.40;2.87;;;13.00;99.90;;;;;;5033612;28;20667;-81
2021/06/13 00:25:28;;;;;;;7.53;3.40;;;12.90;99.90;;;;;;5033923;28;20202;-81
2021/06/13 00:27:53;;;;;;;7.93;3.60;;;13.00;99.90;;;;;;5033627;28;20185;-81
2021/06/13 00:30:19;;;;;;;9.80;3.70;;;12.90;99.90;;;;;;5016428;28;20186;-80
2021/06/13 00:32:45;;;;;;;5.47;3.60;;;12.80;99.90;;;;;;5016544;28;20179;-80
2021/06/13 00:35:11;;;;;;;8.00;3.50;;;12.80;99.90;;;;;;5033254;28;20195;-80
2021/06/13 00:37:37;;;;;;;7.13;3.00;;;12.70;99.90;;;;;;5016841;28;20195;-81
2021/06/13 00:40:04;;;;;;;5.67;2.90;;;12.70;99.90;;;;;;5033097;28;20179;-82
2021/06/13 00:42:29;;;;;;;7.60;2.93;;;12.70;99.90;;;;;;5033420;28;20653;-81
2021/06/13 00:44:55;;;;;;;6.93;3.33;;;12.70;99.90;;;;;;5032828;28;20195;-81
2021/06/13 00:47:20;;;;;;;4.70;2.57;;;12.60;99.90;;;;;;5032606;28;20533;-81
2021/06/13 00:49:46;;;;;;;8.13;3.20;;;12.50;99.90;;;;;;5032630;28;20182;-81
2021/06/13 00:52:11;;;;;;;7.20;3.30;;;12.50;99.90;;;;;;5032301;28;20211;-80
2021/06/13 00:54:37;;;;;;;6.73;3.43;;;12.50;99.90;;;;;;5031975;28;20217;-81
2021/06/13 00:57:03;;;;;;;9.60;3.30;;;12.40;99.90;;;;;;5015236;28;20186;-80
2021/06/13 00:59:28;;;;;;;5.90;2.80;;;12.30;99.90;;;;;;5015468;28;20179;-80
2021/06/13 01:01:54;;;;;;;10.17;3.50;;;12.30;99.90;;;;;;5031947;28;20178;-81
2021/06/13 01:04:19;;;;;;;4.60;2.70;;;12.20;99.90;;;;;;5015399;28;20219;-81
2021/06/13 01:07:03;;;;;;;7.77;3.43;;;12.20;99.90;;;;;;5031591;28;20207;-81
2021/06/13 01:09:32;;;;;;;8.90;3.77;;;12.20;99.90;;;;;;5032377;28;20541;-80
2021/06/13 01:12:05;;;;;;;7.77;3.23;;;12.10;99.90;;;;;;5031827;28;20258;-80
2021/06/13 01:14:42;;;;;;;6.20;3.73;;;12.10;99.90;;;;;;5032338;28;20242;-81
2021/06/13 01:17:30;;;;;;;7.83;3.03;;;12.00;99.90;;;;;;5032500;28;20189;-81
2021/06/13 01:20:20;;;;;;;5.50;2.70;;;12.00;99.90;;;;;;5032373;28;20171;-81
2021/06/13 01:22:48;;;;;;;6.67;2.83;;;12.00;99.90;;;;;;5033698;28;20159;-81
2021/06/13 01:25:38;;;;;;;6.73;2.70;;;12.00;99.90;;;;;;5047546;28;20197;-81
2021/06/13 01:28:34;;;;;;;10.97;3.23;;;12.00;99.90;;;;;;5031299;28;20175;-81
2021/06/13 01:31:00;;;;;;;9.30;3.13;;;11.90;99.90;;;;;;5031215;28;20170;-81
2021/06/13 01:33:25;;;;;;;6.67;2.83;;;11.90;99.90;;;;;;5031757;28;20202;-81
2021/06/13 01:35:51;;;;;;;6.80;3.50;;;12.00;99.90;;;;;;5014801;28;20209;-80
2021/06/13 01:38:17;;;;;;;8.23;3.30;;;11.90;99.90;;;;;;5014337;28;20171;-81
2021/06/13 01:40:43;;;;;;;7.07;3.07;;;11.90;99.90;;;;;;5031023;28;20182;-80
2021/06/13 01:43:08;;;;;;;10.43;3.10;;;11.80;99.90;;;;;;5031139;28;20268;-81
2021/06/13 01:45:36;;;;;;;8.17;2.90;;;11.80;99.90;;;;;;5014287;28;20266;-80
2021/06/13 01:48:02;;;;;;;10.30;3.10;;;11.80;99.90;;;;;;5031121;28;20630;-81
2021/06/13 01:50:29;;;;;;;10.20;3.57;;;11.80;99.90;;;;;;5030850;28;20183;-80
2021/06/13 01:52:55;;;;;;;7.30;3.00;;;11.70;99.90;;;;;;5030779;28;20693;-80
2021/06/13 01:55:21;;;;;;;9.00;3.30;;;11.70;99.90;;;;;;5031003;28;20201;-80
2021/06/13 01:57:47;;;;;;;9.80;3.20;;;11.60;99.90;;;;;;5014479;28;20204;-80
2021/06/13 02:00:13;;;;;;;9.27;3.53;;;11.50;99.90;;;;;;5030732;28;20182;-81
2021/06/13 02:02:41;;;;;;;8.63;3.20;;;11.50;99.90;;;;;;5030923;28;20189;-80
2021/06/13 02:05:07;;;;;;;6.57;3.17;;;11.40;99.90;;;;;;5030956;28;20213;-81
2021/06/13 02:07:36;;;;;;;6.90;3.53;;;11.40;99.90;;;;;;5030659;28;20638;-80
2021/06/13 02:10:04;;;;;;;5.97;3.20;;;11.40;99.90;;;;;;5030473;28;20171;-80
2021/06/13 02:12:30;;;;;;;7.33;3.27;;;11.40;99.90;;;;;;5014820;28;20182;-80
2021/06/13 02:14:56;;;;;;;4.80;3.33;;;11.50;99.90;;;;;;5030781;28;20271;-80
2021/06/13 02:17:21;;;;;;;9.70;3.83;;;11.40;99.90;;;;;;5030664;28;20634;-80
2021/06/13 02:19:48;;;;;;;9.43;3.60;;;11.40;99.90;;;;;;5030308;28;20645;-80
2021/06/13 02:22:16;;;;;;;9.80;3.40;;;11.40;99.90;;;;;;5030687;28;20228;-81
2021/06/13 02:24:43;;;;;;;6.20;3.40;;;11.50;99.90;;;;;;5030716;28;20190;-80
2021/06/13 02:27:09;;;;;;;9.73;4.27;;;11.40;99.90;;;;;;5030903;28;20185;-81
2021/06/13 02:29:34;;;;;;;6.07;3.20;;;11.30;99.90;;;;;;5029921;28;20179;-80
2021/06/13 02:32:00;;;;;;;8.77;3.53;;;11.30;99.90;;;;;;5014072;28;20181;-80
2021/06/13 02:34:26;;;;;;;8.20;3.40;;;11.30;99.90;;;;;;5030666;28;20255;-80
2021/06/13 02:36:53;;;;;;;8.13;3.33;;;11.30;99.90;;;;;;5032976;28;20680;-80
2021/06/13 02:39:19;;;;;;;10.43;3.50;;;11.20;99.90;;;;;;5034732;28;20189;-80
2021/06/13 02:41:45;;;;;;;10.90;3.40;;;11.10;99.90;;;;;;5018056;28;20706;-80
2021/06/13 02:44:10;;;;;;;5.93;3.37;;;11.10;99.90;;;;;;5034414;28;20263;-80
2021/06/13 02:46:36;;;;;;;8.17;3.70;;;11.00;99.90;;;;;;5034394;28;20571;-80
2021/06/13 02:49:04;;;;;;;7.30;3.33;;;11.00;99.90;;;;;;5034680;28;20185;-80
2021/06/13 02:51:33;;;;;;;7.83;3.47;;;11.00;99.90;;;;;;5034241;28;20214;-80
2021/06/13 02:53:59;;;;;;;8.33;3.90;;;11.00;99.90;;;;;;5034646;28;20200;-80
2021/06/13 02:56:28;;;;;;;7.70;3.10;;;11.10;99.90;;;;;;5017666;28;20198;-80
2021/06/13 02:59:11;;;;;;;7.13;3.53;;;11.10;99.90;;;;;;5034309;28;20167;-80
2021/06/13 03:01:41;;;;;;;9.10;3.57;;;11.00;99.90;;;;;;5036052;28;20178;-80
2021/06/13 03:04:06;;;;;;;8.07;3.27;;;11.00;99.90;;;;;;5034685;28;20204;-80
2021/06/13 03:06:32;;;;;;;8.80;3.10;;;10.90;99.90;;;;;;5034102;28;20202;-80
2021/06/13 03:08:57;;;;;;;9.90;3.27;;;10.90;99.90;;;;;;5017521;28;20185;-80
2021/06/13 03:11:23;;;;;;;6.43;3.30;;;10.90;99.90;;;;;;5034164;28;20270;-80
2021/06/13 03:13:49;;;;;;;8.17;3.40;;;10.80;99.90;;;;;;5034181;28;20216;-80
2021/06/13 03:16:15;;;;;;;4.90;3.20;;;10.80;99.90;;;;;;5017885;28;20578;-80
2021/06/13 03:18:41;;;;;;;4.57;3.23;;;10.80;99.90;;;;;;5037018;28;20235;-80
2021/06/13 03:21:07;;;;;;;7.87;4.00;;;10.80;99.90;;;;;;5039841;28;20193;-80
2021/06/13 03:23:32;;;;;;;11.00;3.90;;;10.80;99.90;;;;;;5040499;28;20274;-80
2021/06/13 03:26:01;;;;;;;7.67;3.90;;;10.80;99.90;;;;;;5041842;28;20206;-80
2021/06/13 03:28:27;;;;;;;8.70;3.77;;;10.80;99.90;;;;;;5035043;28;20561;-80
2021/06/13 03:30:52;;;;;;;7.63;3.50;;;10.80;99.90;;;;;;5033877;28;20178;-80
2021/06/13 03:33:18;;;;;;;7.77;3.60;;;10.70;99.90;;;;;;5033635;28;20229;-80
2021/06/13 03:35:45;;;;;;;8.33;3.80;;;10.70;99.90;;;;;;5017235;28;20311;-80
2021/06/13 03:38:10;;;;;;;11.67;3.87;;;10.60;99.90;;;;;;5033768;28;20181;-80
2021/06/13 03:40:36;;;;;;;7.40;3.97;;;10.60;99.90;;;;;;5033878;28;20239;-80
2021/06/13 03:43:01;;;;;;;9.20;4.37;;;10.60;99.90;;;;;;5033643;28;20194;-80
2021/06/13 03:45:27;;;;;;;7.37;4.33;;;10.50;99.90;;;;;;5033782;28;20660;-80
2021/06/13 03:47:53;;;;;;;9.77;3.67;;;10.60;99.90;;;;;;5033337;28;20617;-80
2021/06/13 03:50:18;;;;;;;6.97;3.63;;;10.60;99.90;;;;;;5033448;28;20254;-80
2021/06/13 03:52:45;;;;;;;8.17;3.80;;;10.60;99.90;;;;;;5017058;28;20184;-79
2021/06/13 03:55:11;;;;;;;8.30;3.93;;;10.70;99.90;;;;;;5016799;28;20217;-80
2021/06/13 03:57:38;;;;;;;10.57;3.90;;;10.60;99.90;;;;;;5033501;28;20228;-80
2021/06/13 04:00:05;;;;;;;9.87;3.90;;;10.60;99.90;;;;;;5033227;28;20189;-80
2021/06/13 04:02:30;;;;;;;12.17;4.13;;;10.70;99.90;;;;;;5033502;28;20281;-80
2021/06/13 04:04:56;;;;;;;6.27;3.83;;;10.80;99.90;;;;;;5033312;28;20273;-80
2021/06/13 04:07:21;;;;;;;8.27;3.80;;;10.80;99.90;;;;;;5033085;28;20596;-80
2021/06/13 04:09:47;;;;;;;9.23;3.67;;;10.80;99.90;;;;;;5016577;28;20273;-80
2021/06/13 04:12:20;;;;;;;12.23;4.67;;;10.80;99.90;;;;;;5032965;28;20185;-80
2021/06/13 04:14:45;;;;;;;9.03;3.93;;;10.80;99.90;;;;;;5032802;28;20531;-80
2021/06/13 04:17:19;;;;;;;8.07;4.37;;;10.80;99.90;;;;;;5033486;28;20186;-80
2021/06/13 04:19:47;;;;;;;5.83;3.90;;;10.90;99.90;;;;;;5033347;28;20174;-79
2021/06/13 04:22:15;;;;;;;7.10;4.40;;;10.90;99.90;;;;;;5016484;28;20186;-79
2021/06/13 04:24:41;;;;;;;8.23;3.83;;;10.90;99.90;;;;;;5032607;28;20769;-79
2021/06/13 04:27:07;;;;;;;9.60;4.07;;;11.00;99.90;;;;;;5032296;28;20265;-79
2021/06/13 04:29:33;;;;;;;9.90;4.33;;;11.00;99.90;;;;;;5015912;28;20605;-79
2021/06/13 04:31:58;;;;;;;8.53;4.10;;;11.10;99.90;;;;;;5032824;28;20182;-79
2021/06/13 04:34:24;;;;;;;6.07;3.67;;;11.20;99.90;;;;;;5032049;28;20241;-79
2021/06/13 04:36:50;;;;;;;11.07;4.10;;;11.30;99.90;;;;;;5032437;28;20458;-79
2021/06/13 04:39:15;;;;;;;6.23;3.70;;;11.30;99.90;;;;;;5032052;28;20179;-80
2021/06/13 04:41:41;;;;;;;5.80;3.97;;;11.40;99.90;;;;;;5032087;28;20265;-80
2021/06/13 04:44:07;;;;;;;10.73;4.33;;;11.40;99.90;;;;;;5031902;28;20539;-80
2021/06/13 04:46:32;;;;;;;10.57;4.23;;;11.50;99.90;;;;;;5032001;28;20213;-80
2021/06/13 04:48:58;;;;;;;10.23;4.00;;;11.50;99.90;;;;;;5032118;28;20224;-80
2021/06/13 04:51:24;;;;;;;12.93;3.97;;;11.60;99.90;;;;;;5031918;28;20182;-80
2021/06/13 04:53:57;;;;;;;7.30;4.00;;;11.70;99.90;;;;;;5015262;28;20210;-80
2021/06/13 04:56:41;;;;;;;11.03;3.70;;;11.70;99.90;;;;;;5032918;28;20727;-79
2021/06/13 04:59:07;;;;;;;9.97;4.17;;;11.80;99.90;;;;;;5047864;28;20203;-79
2021/06/13 05:01:32;;;;;;;9.27;4.27;;;11.90;99.90;;;;;;5015188;28;20206;-79
2021/06/13 05:03:58;;;;;;;10.50;4.57;;;12.00;99.90;;;;;;5031663;28;20182;-79
2021/06/13 05:06:24;;;;;;;8.30;3.80;;;12.10;99.90;;;;;;5031696;28;20237;-79
2021/06/13 05:08:49;;;;;;;8.73;3.60;;;12.20;99.90;;;;;;5031672;28;20167;-79
2021/06/13 05:11:15;;;;;;;7.67;3.97;;;12.20;99.90;;;;;;5031541;28;20586;-79
2021/06/13 05:13:40;;;;;;;11.93;4.30;;;12.30;99.90;;;;;;5031574;28;20720;-80
2021/06/13 05:16:06;;;;;;;11.10;4.10;;;12.40;99.90;;;;;;5031399;28;20206;-80
2021/06/13 05:18:32;;;;;;;9.93;4.30;;;12.50;99.90;;;;;;5031557;28;20625;-80
2021/06/13 05:20:57;;;;;;;9.07;4.13;;;12.60;99.90;;;;;;5031705;28;20170;-80
2021/06/13 05:23:23;;;;;;;12.13;4.43;;;12.70;99.90;;;;;;5032002;28;20235;-80
2021/06/13 05:25:50;;;;;;;6.50;3.63;;;12.90;99.90;;;;;;5032111;28;20198;-80
2021/06/13 05:28:15;;;;;;;9.80;3.70;;;13.00;99.90;;;;;;5032914;28;20175;-81
2021/06/13 05:30:41;;;;;;;12.20;3.80;;;13.20;99.90;;;;;;5033104;28;20229;-81
2021/06/13 05:33:07;;;;;;;7.90;3.17;;;13.30;99.90;;;;;;5016808;28;20183;-80
2021/06/13 05:35:33;;;;;;;8.03;3.47;;;13.40;99.90;;;;;;5017041;28;20289;-81
2021/06/13 05:37:58;;;;;;;6.10;3.37;;;13.60;99.90;;;;;;5018931;28;20178;-84
2021/06/13 05:40:24;;;;;;;9.03;3.87;;;13.90;99.90;;;;;;5035493;28;20596;-82
2021/06/13 05:42:51;;;;;;;7.87;3.40;;;14.50;99.90;;;;;;5034776;28;20189;-83
2021/06/13 05:45:17;;;;;;;8.03;2.90;;;15.30;99.90;;;;;;5033421;28;20668;-80
2021/06/13 05:47:43;;;;;;;6.03;2.70;;;16.10;99.90;;;;;;5032499;28;20665;-82
2021/06/13 05:50:10;;;;;;;5.30;2.70;;;16.50;99.90;;;;;;5016811;28;20183;-81
2021/06/13 05:52:36;;;;;;;6.90;2.80;;;16.80;99.90;;;;;;5014687;28;20190;-79
2021/06/13 05:55:02;;;;;;;4.67;2.10;;;17.10;99.90;;;;;;5013175;28;20218;-79
2021/06/13 05:57:34;;;;;;;4.87;2.10;;;17.30;99.90;;;;;;5013905;28;20181;-79
2021/06/13 06:00:00;;;;;;;8.23;2.27;;;17.50;99.90;;;;;;5014295;28;20557;-78
2021/06/13 06:02:26;;;;;;;4.77;2.23;;;17.80;99.90;;;;;;5014146;28;20183;-78
2021/06/13 06:04:52;;;;;;;4.23;1.93;;;18.20;99.90;;;;;;5031010;28;20217;-80
2021/06/13 06:07:17;;;;;;;4.50;1.90;;;18.50;99.90;;;;;;5031384;28;20179;-79
2021/06/13 06:09:43;;;;;;;5.13;1.90;;;18.70;99.90;;;;;;5030906;28;20218;-79
2021/06/13 06:12:09;;;;;;;6.13;2.10;;;18.90;99.90;;;;;;5030948;28;20183;-79
2021/06/13 06:14:35;;;;;;;3.40;2.23;;;19.20;99.90;;;;;;5030986;28;20206;-79
2021/06/13 06:17:00;;;;;;;3.70;2.13;;;19.40;99.90;;;;;;5030280;28;20179;-79
2021/06/13 06:19:26;;;;;;;6.57;2.43;;;19.50;99.90;;;;;;5030199;28;20229;-78
2021/06/13 06:21:51;;;;;;;3.93;2.20;;;20.10;99.90;;;;;;5030026;28;20254;-79
2021/06/13 06:24:17;;;;;;;4.00;1.90;;;20.70;99.90;;;;;;5029932;28;20174;-78
2021/06/13 06:26:42;;;;;;;3.63;1.97;;;21.20;99.90;;;;;;5029885;28;20218;-76
2021/06/13 06:29:08;;;;;;;4.17;2.07;;;21.10;99.90;;;;;;5029945;28;20215;-76
2021/06/13 06:31:34;;;;;;;3.73;1.90;;;20.90;99.90;;;;;;5030214;28;20179;-76
2021/06/13 06:34:00;;;;;;;3.90;1.70;;;20.50;99.90;;;;;;5030053;28;20194;-76
2021/06/13 06:36:25;;;;;;;4.83;1.33;;;20.00;99.90;;;;;;5029619;28;20700;-77
2021/06/13 06:38:51;;;;;;;4.50;1.50;;;19.60;99.90;;;;;;5030027;28;20653;-77
2021/06/13 06:41:16;;;;;;;3.00;1.80;;;19.40;99.90;;;;;;5029669;28;20179;-76
2021/06/13 06:43:42;;;;;;;2.47;1.50;;;19.20;99.90;;;;;;5029787;28;20244;-77
2021/06/13 06:46:07;;;;;;;4.60;1.40;;;19.10;99.90;;;;;;5029385;28;20241;-77
2021/06/13 06:48:33;;;;;;;5.27;1.80;;;19.00;99.90;;;;;;5029477;28;20178;-77
2021/06/13 06:50:58;;;;;;;5.53;1.40;;;19.00;99.90;;;;;;5029552;28;20187;-78
2021/06/13 06:53:24;;;;;;;3.63;1.37;;;19.10;99.90;;;;;;5029504;28;20222;-78
2021/06/13 06:55:49;;;;;;;2.97;1.63;;;19.00;99.90;;;;;;5029487;28;20198;-78
2021/06/13 06:58:15;;;;;;;4.70;1.53;;;18.90;99.90;;;;;;5029550;28;20186;-79
2021/06/13 07:00:40;;;;;;;4.43;1.57;;;19.00;99.90;;;;;;5012815;28;20175;-79
2021/06/13 07:03:11;;;;;;;4.20;1.73;;;19.10;99.90;;;;;;5013770;28;20179;-83
2021/06/13 07:05:38;;;;;;;3.40;1.50;;;19.10;99.90;;;;;;5031630;28;20187;-82
2021/06/13 07:08:04;;;;;;;3.40;1.53;;;19.10;99.90;;;;;;5014702;28;20175;-84
2021/06/13 07:10:29;;;;;;;2.60;1.40;;;19.10;99.90;;;;;;5014297;28;20579;-84
2021/06/13 07:12:55;;;;;;;2.57;1.30;;;19.20;99.90;;;;;;5013841;28;20177;-85
2021/06/13 07:15:20;;;;;;;2.97;1.30;;;19.40;99.90;;;;;;5031016;28;68256;-84
2021/06/13 07:17:46;;;;;;;3.27;1.50;;;19.50;99.90;;;;;;5047830;28;20206;-84
2021/06/13 07:20:12;;;;;;;2.87;1.20;;;19.80;99.90;;;;;;5030560;28;20183;-80
2021/06/13 07:22:38;;;;;;;3.47;1.30;;;20.00;99.90;;;;;;5032655;28;20183;-81
2021/06/13 07:25:06;;;;;;;2.90;1.13;;;20.00;99.90;;;;;;5031706;28;21327;-82
2021/06/13 07:27:32;;;;;;;2.30;1.10;;;20.60;99.90;;;;;;5017003;28;20602;-81
2021/06/13 07:29:58;;;;;;;3.53;1.50;;;20.70;99.90;;;;;;5018243;28;20236;-82
2021/06/13 07:32:23;;;;;;;5.33;1.40;;;20.40;99.90;;;;;;5050588;28;20232;-81
2021/06/13 07:34:49;;;;;;;3.60;1.67;;;20.40;99.90;;;;;;5008982;28;20302;-80
2021/06/13 07:37:14;;;;;;;2.13;1.53;;;20.40;99.90;;;;;;5033822;28;20194;-79
2021/06/13 07:39:40;;;;;;;1.97;1.27;;;20.30;99.90;;;;;;5031856;28;20182;-80
2021/06/13 07:42:08;;;;;;;2.60;1.50;;;20.00;99.90;;;;;;5017597;28;20249;-81
2021/06/13 07:44:33;;;;;;;3.33;1.40;;;19.70;99.90;;;;;;5007315;28;20187;-79
2021/06/13 07:46:59;;;;;;;3.10;1.60;;;19.40;99.90;;;;;;5015079;28;20557;-79
2021/06/13 07:49:24;;;;;;;2.10;1.40;;;19.40;99.90;;;;;;5049473;28;20960;-80
2021/06/13 07:51:50;;;;;;;2.30;1.50;;;19.50;99.90;;;;;;5016477;28;20596;-79
2021/06/13 07:54:16;;;;;;;1.83;1.30;;;19.70;99.90;;;;;;5016501;28;20211;-79
2021/06/13 07:56:41;;;;;;;3.77;1.53;;;19.70;99.90;;;;;;5016603;28;20206;-80
2021/06/13 07:59:07;;;;;;;3.00;1.40;;;19.90;99.90;;;;;;5033080;28;20254;-80
2021/06/13 08:01:33;;;;;;;3.37;1.50;;;20.40;99.90;;;;;;5032742;28;20210;-79
2021/06/13 08:03:59;;;;;;;3.03;1.33;;;20.80;99.90;;;;;;5030379;28;20188;-79
2021/06/13 08:06:24;;;;;;;3.27;1.37;;;20.80;99.90;;;;;;5016514;28;20253;-79
2021/06/13 08:08:50;;;;;;;1.80;1.20;;;20.70;99.90;;;;;;5016389;28;20655;-80
2021/06/13 08:11:15;;;;;;;3.10;1.50;;;20.60;99.90;;;;;;5033026;28;20619;-80
2021/06/13 08:13:41;;;;;;;1.80;1.20;;;20.70;99.90;;;;;;5033038;28;20300;-80
2021/06/13 08:16:07;;;;;;;2.93;1.70;;;20.50;99.90;;;;;;5016583;28;20221;-81
2021/06/13 08:18:32;;;;;;;5.20;1.77;;;20.10;99.90;;;;;;5032985;28;20599;-78
2021/06/13 08:20:58;;;;;;;2.33;1.40;;;20.10;99.90;;;;;;5032439;28;20196;-78
2021/06/13 08:23:24;;;;;;;5.27;1.20;;;20.40;99.90;;;;;;5016070;28;20182;-78
2021/06/13 08:25:49;;;;;;;2.40;1.20;;;20.60;99.90;;;;;;5032148;28;20248;-79
2021/06/13 08:28:15;;;;;;;2.93;1.23;;;20.50;99.90;;;;;;5032726;28;20232;-78
2021/06/13 08:30:41;;;;;;;3.53;1.60;;;20.70;99.90;;;;;;5032296;28;20548;-78
2021/06/13 08:33:06;;;;;;;3.00;1.20;;;20.50;99.90;;;;;;5031686;28;20187;-78
2021/06/13 08:35:32;;;;;;;2.23;1.30;;;20.50;99.90;;;;;;5031859;28;20209;-77
2021/06/13 08:38:02;;;;;;;2.07;1.40;;;20.60;99.90;;;;;;5015153;28;20273;-80
2021/06/13 08:40:28;;;;;;;3.10;1.30;;;20.50;99.90;;;;;;5016928;28;20270;-80
2021/06/13 08:42:53;;;;;;;4.43;1.33;;;20.50;99.90;;;;;;5002013;28;20269;-79
2021/06/13 08:45:19;;;;;;;3.57;1.60;;;20.40;99.90;;;;;;5044707;28;20231;-80
2021/06/13 08:47:46;;;;;;;1.73;1.10;;;20.40;99.90;;;;;;5026989;28;20186;-82
2021/06/13 08:50:12;;;;;;;2.77;1.13;;;20.50;99.90;;;;;;5033920;28;20187;-79
2021/06/13 08:52:37;;;;;;;3.00;1.20;;;20.40;99.90;;;;;;5016159;28;20717;-79
2021/06/13 08:55:05;;;;;;;2.00;1.03;;;20.20;99.90;;;;;;5015666;28;20226;-79
2021/06/13 08:57:31;;;;;;;2.07;1.10;;;20.10;99.90;;;;;;5032325;28;20185;-79
2021/06/13 08:59:56;;;;;;;2.97;1.30;;;20.10;99.90;;;;;;5031683;28;20269;-79
2021/06/13 09:02:22;;;;;;;1.67;1.10;;;20.00;99.90;;;;;;5032172;28;20182;-79
2021/06/13 09:04:48;;;;;;;2.77;1.20;;;20.10;99.90;;;;;;5009649;28;20214;-79
2021/06/13 09:07:24;;;;;;;2.10;1.10;;;20.10;99.90;;;;;;5048366;28;20273;-79
2021/06/13 09:09:51;;;;;;;1.40;0.90;;;20.10;99.90;;;;;;5032517;28;20220;-79
2021/06/13 09:12:16;;;;;;;1.50;1.00;;;20.10;99.90;;;;;;5031382;28;20233;-80
2021/06/13 09:14:43;;;;;;;2.87;1.27;;;20.40;99.90;;;;;;5014536;28;20214;-79
2021/06/13 09:17:20;;;;;;;2.83;1.20;;;20.50;99.90;;;;;;5031692;28;20179;-80
2021/06/13 09:20:05;;;;;;;1.90;1.17;;;20.50;99.90;;;;;;5031824;28;20178;-80
2021/06/13 09:22:31;;;;;;;2.47;1.10;;;20.70;99.90;;;;;;5030473;28;20187;-78
2021/06/13 09:25:23;;;;;;;3.70;0.93;;;20.80;99.90;;;;;;5013549;28;20290;-78
2021/06/13 09:28:04;;;;;;;3.10;1.03;;;20.90;99.90;;;;;;5012517;28;20608;-79
2021/06/13 09:30:34;;;;;;;4.50;1.00;;;20.90;99.90;;;;;;5003290;28;20556;-80
2021/06/13 09:33:02;;;;;;;2.20;1.00;;;20.70;98.50;;;;;;5031937;28;20186;-79
2021/06/13 09:35:29;;;;;;;2.97;1.23;;;20.50;99.90;;;;;;5015039;28;20191;-78
2021/06/13 09:38:08;;;;;;;3.17;1.07;;;20.30;99.90;;;;;;5015043;28;20600;-78
2021/06/13 09:40:33;;;;;;;1.23;0.90;;;20.20;99.90;;;;;;5030434;28;20270;-81
2021/06/13 09:43:22;;;;;;;2.40;1.10;;;20.30;99.90;;;;;;5014621;28;20643;-78
2021/06/13 09:45:49;;;;;;;3.87;1.00;;;20.20;99.90;;;;;;5030699;28;20686;-79
2021/06/13 09:48:15;;;;;;;1.33;0.90;;;20.10;99.90;;;;;;5014774;28;20195;-77
2021/06/13 09:50:48;;;;;;;2.40;0.93;;;20.10;99.20;;;;;;5014129;28;20198;-77
2021/06/13 09:53:22;;;;;;;1.60;0.93;;;20.20;99.90;;;;;;5015356;28;20175;-78
2021/06/13 09:55:52;;;;;;;2.53;1.20;;;20.30;99.90;;;;;;5030899;28;20193;-77
2021/06/13 09:58:17;;;;;;;1.73;1.00;;;20.30;99.90;;;;;;5015089;28;20186;-80
2021/06/13 10:00:44;;;;;;;1.63;1.10;;;20.30;99.90;;;;;;5014390;28;20191;-77
2021/06/13 10:03:22;;;;;;;2.27;0.90;;;20.60;98.70;;;;;;5014860;28;20179;-79
2021/06/13 10:05:58;;;;;;;2.30;1.07;;;20.80;99.90;;;;;;5014146;28;20190;-79
2021/06/13 10:08:26;;;;;;;2.20;1.20;;;20.90;99.90;;;;;;5030747;28;20185;-78
2021/06/13 10:10:53;;;;;;;1.83;1.00;;;21.00;99.90;;;;;;5014054;28;20689;-78
2021/06/13 10:13:19;;;;;;;2.67;1.37;;;21.00;99.40;;;;;;5014377;28;20167;-79
2021/06/13 10:15:50;;;;;;;1.90;1.20;;;21.10;99.90;;;;;;5040585;22;20234;-76
2021/06/13 10:18:16;;;;;;;2.13;1.30;;;21.30;99.90;;;;;;5031184;28;20240;-77
2021/06/13 10:20:42;;;;;;;1.10;0.90;;;21.40;99.90;;;;;;5014084;28;20179;-76
2021/06/13 10:23:08;;;;;;;1.47;0.90;;;21.40;99.90;;;;;;5014751;28;20171;-77
2021/06/13 10:25:33;;;;;;;2.87;0.90;;;21.50;99.30;;;;;;5011276;28;20199;-72
2021/06/13 10:27:59;;;;;;;2.57;1.00;;;21.50;99.00;;;;;;5010956;28;20310;-74
2021/06/13 10:30:24;;;;;;;2.07;1.20;;;21.40;98.50;;;;;;5010372;28;20247;-73
2021/06/13 10:32:50;;;;;;;2.87;1.13;;;21.30;99.90;;;;;;5027315;28;20277;-73
2021/06/13 10:35:16;;;;;;;2.27;1.17;;;21.30;97.40;;;;;;5010616;28;20211;-73
2021/06/13 10:37:41;;;;;;;1.93;1.00;;;21.20;96.30;;;;;;5029007;28;20271;-73
2021/06/13 10:40:07;;;;;;;2.20;1.10;;;21.00;97.80;;;;;;4990504;28;20176;-74
2021/06/13 10:42:36;;;;;;;2.17;0.97;;;20.90;98.50;;;;;;5028989;28;20206;-73
2021/06/13 10:45:02;;;;;;;2.57;1.40;;;20.80;99.40;;;;;;5025927;28;20729;-72
2021/06/13 10:47:29;;;;;;;2.50;1.13;;;20.90;99.50;;;;;;5036133;28;20216;-76
2021/06/13 10:50:06;;;;;;;1.87;1.10;;;21.10;99.20;;;;;;5044724;28;20661;-72
2021/06/13 10:52:31;;;;;;;2.17;0.87;;;20.90;99.00;;;;;;5042689;28;20187;-72
2021/06/13 10:55:04;;;;;;;1.93;1.20;;;20.90;99.60;;;;;;5010185;28;20208;-73
2021/06/13 10:57:36;;;;;;;3.17;0.90;;;20.90;98.30;;;;;;5031873;28;20226;-73
2021/06/13 11:00:05;;;;;;;1.50;0.90;;;21.10;99.90;;;;;;5033056;28;20282;-73
2021/06/13 11:02:33;;;;;;;2.13;1.00;;;21.30;98.20;;;;;;5016679;28;20261;-73
2021/06/13 11:05:02;;;;;;;1.87;1.10;;;21.30;99.00;;;;;;5013904;28;20202;-72
2021/06/13 11:07:43;;;;;;;1.73;0.90;;;21.30;98.30;;;;;;5028716;28;20175;-73
2021/06/13 11:10:15;;;;;;;1.73;1.00;;;21.40;97.50;;;;;;5013088;28;20172;-73
2021/06/13 11:12:56;;;;;;;3.27;1.17;;;21.60;98.60;;;;;;5013398;28;20167;-73
2021/06/13 11:15:28;;;;;;;2.30;1.00;;;21.30;97.50;;;;;;5013224;28;20210;-72
2021/06/13 11:18:01;;;;;;;1.50;0.97;;;21.10;98.80;;;;;;5013402;28;20176;-73
2021/06/13 11:23:06;;;;;;;2.13;1.10;;;21.30;99.30;;;;;;5015082;28;20538;-73
2021/06/13 11:25:31;;;;;;;2.93;1.40;;;21.20;98.70;;;;;;5012993;28;20196;-73
2021/06/13 11:28:19;;;;;;;2.33;1.20;;;21.30;98.20;;;;;;5029582;28;20229;-72
2021/06/13 11:30:51;;;;;;;2.10;1.10;;;21.40;98.00;;;;;;5027418;28;20182;-72
2021/06/13 11:33:42;;;;;;;2.10;1.30;;;21.40;98.40;;;;;;5029499;28;20172;-72
2021/06/13 11:36:18;;;;;;;1.87;1.03;;;21.40;96.90;;;;;;5027286;28;20246;-73
2021/06/13 11:39:07;;;;;;;1.63;1.03;;;21.40;98.80;;;;;;5012063;28;20188;-74
2021/06/13 11:41:42;;;;;;;1.33;0.90;;;21.30;95.60;;;;;;5021157;28;20199;-73
2021/06/13 11:44:09;;;;;;;1.70;0.80;;;21.30;96.50;;;;;;5029722;28;20199;-73
2021/06/13 11:46:35;;;;;;;1.90;1.30;;;21.40;98.30;;;;;;5029071;28;20202;-73
2021/06/13 11:49:02;;;;;;;2.80;1.10;;;21.50;97.40;;;;;;5029572;28;20531;-74
2021/06/13 11:51:27;;;;;;;2.70;1.10;;;21.30;95.90;;;;;;5030073;28;20183;-73
2021/06/13 11:54:00;;;;;;;2.47;1.10;;;21.20;96.90;;;;;;5029770;28;20203;-74
2021/06/13 11:56:40;;;;;;;1.40;1.00;;;21.20;96.50;;;;;;5029255;28;20208;-72
2021/06/13 11:59:18;;;;;;;2.33;1.10;;;21.20;96.40;;;;;;5014908;28;20597;-73
2021/06/13 12:01:47;;;;;;;3.20;1.07;;;21.30;96.40;;;;;;5015659;28;20186;-71
2021/06/13 12:04:14;;;;;;;2.47;1.03;;;21.60;97.30;;;;;;5029536;28;20578;-73
2021/06/13 12:06:40;;;;;;;1.57;0.90;;;21.80;95.50;;;;;;5029871;28;20554;-73
2021/06/13 12:09:15;;;;;;;2.27;1.30;;;22.00;95.90;;;;;;5029381;28;20171;-72
2021/06/13 12:11:45;;;;;;;3.07;1.10;;;21.90;97.00;;;;;;5005077;28;20583;-72
2021/06/13 12:14:26;;;;;;;1.93;1.20;;;21.90;97.60;;;;;;5002935;28;20196;-73
2021/06/13 12:16:57;;;;;;;3.73;1.30;;;21.90;95.90;;;;;;5017374;28;20212;-73
2021/06/13 12:19:31;;;;;;;3.43;1.30;;;21.70;96.60;;;;;;5022255;28;20197;-73
2021/06/13 12:27:49;;;;;;;2.93;1.50;;;21.80;97.60;;;;;;5013972;28;20633;-75
2021/06/13 12:30:17;;;;;;;4.83;1.70;;;21.90;98.80;;;;;;5012609;28;20179;-74
2021/06/13 12:32:55;;;;;;;1.97;1.23;;;22.00;99.40;;;;;;5029809;28;20739;-75
2021/06/13 12:35:23;;;;;;;2.27;1.30;;;22.00;98.90;;;;;;5029270;28;20207;-77
2021/06/13 12:38:05;;;;;;;2.60;1.30;;;22.00;98.90;;;;;;5029173;28;20178;-75
2021/06/13 12:40:38;;;;;;;3.33;1.20;;;22.00;96.50;;;;;;5012316;28;20253;-75
2021/06/13 12:43:04;;;;;;;2.57;1.40;;;21.90;98.50;;;;;;5028857;28;20172;-73
2021/06/13 12:45:30;;;;;;;2.23;1.17;;;22.00;98.50;;;;;;5012195;28;20199;-74
2021/06/13 12:47:57;;;;;;;2.43;1.23;;;22.00;97.10;;;;;;5029108;28;20180;-73
2021/06/13 12:50:26;;;;;;;2.07;0.97;;;22.00;97.50;;;;;;5013336;28;20180;-73
2021/06/13 12:52:53;;;;;;;2.43;1.13;;;22.00;97.50;;;;;;5013367;28;20314;-73
2021/06/13 12:55:19;;;;;;;3.07;1.20;;;22.00;98.60;;;;;;5028660;28;20682;-73
2021/06/13 12:57:45;;;;;;;1.30;0.87;;;22.20;97.30;;;;;;5011965;28;20266;-73